createdAt,value
2023-01-30T00:00:36.056Z,53.67
2023-01-30T00:03:05.158Z,53.40
2023-01-30T00:05:31.684Z,54.30
2023-01-30T00:07:58.307Z,54.04
2023-01-30T00:10:26.079Z,54.04
2023-01-30T00:12:52.708Z,53.90
2023-01-30T00:15:19.175Z,54.04
2023-01-30T00:17:45.620Z,55.31
2023-01-30T00:20:13.635Z,53.67
2023-01-30T00:22:49.249Z,53.38
2023-01-30T00:25:19.156Z,52.88
2023-01-30T00:27:45.653Z,52.57
2023-01-30T00:30:12.466Z,52.92
2023-01-30T00:32:39.097Z,53.31
2023-01-30T00:35:05.731Z,54.47
2023-01-30T00:37:32.611Z,53.53
2023-01-30T00:39:59.050Z,53.18
2023-01-30T00:42:25.539Z,53.02
2023-01-30T00:44:51.993Z,53.67
2023-01-30T00:47:18.956Z,52.86
2023-01-30T00:49:45.564Z,53.41
2023-01-30T00:52:12.094Z,53.55
2023-01-30T00:54:38.639Z,52.80
2023-01-30T00:57:05.148Z,52.42
2023-01-30T00:59:31.563Z,53.23
2023-01-30T01:01:58.138Z,53.12
2023-01-30T01:04:24.734Z,52.73
2023-01-30T01:06:52.169Z,53.54
2023-01-30T01:09:18.598Z,53.98
2023-01-30T01:11:45.069Z,54.02
2023-01-30T01:14:14.076Z,53.90
2023-01-30T01:16:40.936Z,52.79
2023-01-30T01:19:07.433Z,54.19
2023-01-30T01:21:34.144Z,53.43
2023-01-30T01:24:00.585Z,54.14
2023-01-30T01:26:27.053Z,54.13
2023-01-30T01:28:53.798Z,53.77
2023-01-30T01:31:20.265Z,55.12
2023-01-30T01:33:46.725Z,53.74
2023-01-30T01:36:20.088Z,54.08
2023-01-30T01:38:56.497Z,53.67
2023-01-30T01:41:22.993Z,54.46
2023-01-30T01:43:49.585Z,54.44
2023-01-30T01:46:16.585Z,53.97
2023-01-30T01:48:43.039Z,53.16
2023-01-30T01:51:09.969Z,53.29
2023-01-30T01:53:36.358Z,53.71
2023-01-30T01:56:03.040Z,53.75
2023-01-30T01:58:29.556Z,52.82
2023-01-30T02:00:56.139Z,53.64
2023-01-30T02:03:22.774Z,52.74
2023-01-30T02:05:49.175Z,53.10
2023-01-30T02:08:15.663Z,52.81
2023-01-30T02:10:42.049Z,52.12
2023-01-30T02:13:08.532Z,52.16
2023-01-30T02:15:35.005Z,52.73
2023-01-30T02:18:01.409Z,52.55
2023-01-30T02:20:27.801Z,53.21
2023-01-30T02:22:54.267Z,54.14
2023-01-30T02:25:21.284Z,54.02
2023-01-30T02:27:48.020Z,53.63
2023-01-30T02:30:14.424Z,52.99
2023-01-30T02:32:40.911Z,53.45
2023-01-30T02:35:07.372Z,52.56
2023-01-30T02:37:33.784Z,52.35
2023-01-30T02:40:00.214Z,53.19
2023-01-30T02:42:26.646Z,53.80
2023-01-30T02:44:53.283Z,53.58
2023-01-30T02:47:19.776Z,52.53
2023-01-30T02:49:46.241Z,52.90
2023-01-30T02:52:12.834Z,51.76
2023-01-30T02:54:39.382Z,51.58
2023-01-30T02:57:06.031Z,51.62
2023-01-30T02:59:32.547Z,52.54
2023-01-30T03:01:59.143Z,51.83
2023-01-30T03:04:25.611Z,51.86
2023-01-30T03:06:52.064Z,52.99
2023-01-30T03:09:18.681Z,52.79
2023-01-30T03:11:45.487Z,52.13
2023-01-30T03:14:11.891Z,51.98
2023-01-30T03:16:38.643Z,52.03
2023-01-30T03:19:05.119Z,51.31
2023-01-30T03:21:31.511Z,52.00
2023-01-30T03:24:00.101Z,51.82
2023-01-30T03:26:26.535Z,52.14
2023-01-30T03:28:52.990Z,51.51
2023-01-30T03:31:19.501Z,51.20
2023-01-30T03:33:46.059Z,50.69
2023-01-30T03:36:12.789Z,51.86
2023-01-30T03:38:39.207Z,51.39
2023-01-30T03:41:05.740Z,52.86
2023-01-30T03:43:32.169Z,51.88
2023-01-30T03:45:58.715Z,52.63
2023-01-30T03:48:25.178Z,52.24
2023-01-30T03:50:51.640Z,52.19
2023-01-30T03:53:18.504Z,53.21
2023-01-30T03:55:44.940Z,52.39
2023-01-30T03:58:11.400Z,52.91
2023-01-30T04:00:37.802Z,53.14
2023-01-30T04:03:04.190Z,52.98
2023-01-30T04:05:30.884Z,53.65
2023-01-30T04:07:57.476Z,53.06
2023-01-30T04:10:24.025Z,53.73
2023-01-30T04:12:50.389Z,53.36
2023-01-30T04:15:17.188Z,52.72
2023-01-30T04:17:44.231Z,53.26
2023-01-30T04:20:10.850Z,52.16
2023-01-30T04:22:37.277Z,52.97
2023-01-30T04:25:03.898Z,52.14
2023-01-30T04:27:30.342Z,52.40
2023-01-30T04:29:56.727Z,52.91
2023-01-30T04:32:23.163Z,51.96
2023-01-30T04:34:49.758Z,53.19
2023-01-30T04:37:16.232Z,53.18
2023-01-30T04:39:42.658Z,53.23
2023-01-30T04:42:09.076Z,53.36
2023-01-30T04:44:35.473Z,54.77
2023-01-30T04:47:01.862Z,54.11
2023-01-30T04:49:28.511Z,54.63
2023-01-30T04:51:54.892Z,53.86
2023-01-30T04:54:21.439Z,53.79
2023-01-30T04:56:47.921Z,54.33
2023-01-30T04:59:14.396Z,54.33
2023-01-30T05:01:41.193Z,54.76
2023-01-30T05:04:07.635Z,54.04
2023-01-30T05:06:36.157Z,54.40
2023-01-30T05:09:02.727Z,53.61
2023-01-30T05:11:29.215Z,53.34
2023-01-30T05:13:55.873Z,53.30
2023-01-30T05:16:22.353Z,54.31
2023-01-30T05:18:48.995Z,53.61
2023-01-30T05:21:15.384Z,54.46
2023-01-30T05:23:42.559Z,54.05
2023-01-30T05:26:09.087Z,52.92
2023-01-30T05:28:38.732Z,53.88
2023-01-30T05:31:05.640Z,52.61
2023-01-30T05:33:34.227Z,53.57
2023-01-30T05:36:00.760Z,53.47
2023-01-30T05:38:27.440Z,52.68
2023-01-30T05:40:54.216Z,53.65
2023-01-30T05:43:21.054Z,52.94
2023-01-30T05:45:47.974Z,52.70
2023-01-30T05:48:14.369Z,53.45
2023-01-30T05:50:40.943Z,53.89
2023-01-30T05:53:07.544Z,53.46
2023-01-30T05:55:36.338Z,53.30
2023-01-30T05:58:02.776Z,53.59
2023-01-30T06:00:29.254Z,52.76
2023-01-30T06:02:56.070Z,52.21
2023-01-30T06:05:22.637Z,53.43
2023-01-30T06:07:49.072Z,52.71
2023-01-30T06:10:15.759Z,53.08
2023-01-30T06:12:42.170Z,52.74
2023-01-30T06:15:08.701Z,53.01
2023-01-30T06:17:35.178Z,53.77
2023-01-30T06:20:01.669Z,53.03
2023-01-30T06:22:28.201Z,52.22
2023-01-30T06:24:54.744Z,51.92
2023-01-30T06:27:21.254Z,51.33
2023-01-30T06:29:47.972Z,52.28
2023-01-30T06:32:14.373Z,52.16
2023-01-30T06:34:40.895Z,52.79
2023-01-30T06:37:07.623Z,51.81
2023-01-30T06:39:34.069Z,53.19
2023-01-30T06:42:00.494Z,52.05
2023-01-30T06:44:27.623Z,52.54
2023-01-30T06:46:54.217Z,51.61
2023-01-30T06:49:20.728Z,50.90
2023-01-30T06:51:47.256Z,50.68
2023-01-30T06:54:13.863Z,49.38
2023-01-30T06:56:40.319Z,49.77
2023-01-30T06:59:06.686Z,50.67
2023-01-30T07:01:33.425Z,51.16
2023-01-30T07:04:00.002Z,50.25
2023-01-30T07:06:29.001Z,49.91
2023-01-30T07:08:56.131Z,49.63
2023-01-30T07:11:22.759Z,50.10
2023-01-30T07:13:49.208Z,50.29
2023-01-30T07:16:15.797Z,50.37
2023-01-30T07:18:44.907Z,49.06
2023-01-30T07:21:11.529Z,50.79
2023-01-30T07:23:39.037Z,50.93
2023-01-30T07:26:05.607Z,51.16
2023-01-30T07:28:32.154Z,50.20
2023-01-30T07:30:58.573Z,50.14
2023-01-30T07:33:25.422Z,50.32
2023-01-30T07:35:53.513Z,49.89
2023-01-30T07:38:20.445Z,49.57
2023-01-30T07:40:47.184Z,49.74
2023-01-30T07:43:13.872Z,50.12
2023-01-30T07:45:40.400Z,50.49
2023-01-30T07:48:06.835Z,50.39
2023-01-30T07:50:33.759Z,49.68
2023-01-30T07:53:00.237Z,49.35
2023-01-30T07:55:26.624Z,49.82
2023-01-30T07:57:53.251Z,49.55
2023-01-30T08:00:20.286Z,49.64
2023-01-30T08:02:46.991Z,48.73
2023-01-30T08:05:13.734Z,50.08
2023-01-30T08:07:40.350Z,50.28
2023-01-30T08:10:06.730Z,51.26
2023-01-30T08:12:33.447Z,50.47
2023-01-30T08:15:00.215Z,49.67
2023-01-30T08:17:26.857Z,49.15
2023-01-30T08:19:54.011Z,48.83
2023-01-30T08:22:20.749Z,48.84
2023-01-30T08:24:47.175Z,49.35
2023-01-30T08:27:14.017Z,49.65
2023-01-30T08:29:40.498Z,49.15
2023-01-30T08:32:07.137Z,48.46
2023-01-30T08:34:34.144Z,48.00
2023-01-30T08:37:00.652Z,46.97
2023-01-30T08:39:27.050Z,46.74
2023-01-30T08:41:53.478Z,46.94
2023-01-30T08:44:20.830Z,46.83
2023-01-30T08:46:47.247Z,47.68
2023-01-30T08:49:13.709Z,46.79
2023-01-30T08:51:40.200Z,45.41
2023-01-30T08:54:06.729Z,45.47
2023-01-30T08:56:33.236Z,45.53
2023-01-30T08:58:59.990Z,45.45
2023-01-30T09:01:26.560Z,45.26
2023-01-30T09:03:53.110Z,46.58
2023-01-30T09:06:19.728Z,46.69
2023-01-30T09:08:46.621Z,47.42
2023-01-30T09:11:13.105Z,47.19
2023-01-30T09:13:39.552Z,47.39
2023-01-30T09:16:06.430Z,49.71
2023-01-30T09:18:32.928Z,50.21
2023-01-30T09:20:59.371Z,48.98
2023-01-30T09:23:25.815Z,50.88
2023-01-30T09:25:52.355Z,50.42
2023-01-30T09:28:18.936Z,49.69
2023-01-30T09:30:45.453Z,50.91
2023-01-30T09:33:11.855Z,51.07
2023-01-30T09:35:38.485Z,49.34
2023-01-30T09:38:05.322Z,49.21
2023-01-30T09:40:31.734Z,50.28
2023-01-30T09:42:58.369Z,48.85
2023-01-30T09:45:26.399Z,47.04
2023-01-30T09:47:52.806Z,47.13
2023-01-30T09:50:20.031Z,46.21
2023-01-30T09:52:47.096Z,46.48
2023-01-30T09:55:13.517Z,46.33
2023-01-30T09:57:40.031Z,46.21
2023-01-30T10:00:06.519Z,46.33
2023-01-30T10:02:35.188Z,47.00
2023-01-30T10:05:03.022Z,46.36
2023-01-30T10:07:29.738Z,46.81
2023-01-30T10:09:56.407Z,46.50
2023-01-30T10:12:23.873Z,46.78
2023-01-30T10:14:50.852Z,47.77
2023-01-30T10:17:17.539Z,47.49
2023-01-30T10:19:43.953Z,47.46
2023-01-30T10:22:10.484Z,48.34
2023-01-30T10:24:37.392Z,48.59
2023-01-30T10:27:04.929Z,47.98
2023-01-30T10:29:33.897Z,48.27
2023-01-30T10:32:00.370Z,47.24
2023-01-30T10:34:26.826Z,47.20
2023-01-30T10:36:53.364Z,47.51
2023-01-30T10:39:20.090Z,47.11
2023-01-30T10:41:46.534Z,48.51
2023-01-30T10:44:13.204Z,46.91
2023-01-30T10:46:39.794Z,46.43
2023-01-30T10:49:06.533Z,46.79
2023-01-30T10:51:33.830Z,46.83
2023-01-30T10:54:00.336Z,47.38
2023-01-30T10:56:26.754Z,46.29
2023-01-30T10:58:53.283Z,46.34
2023-01-30T11:01:19.788Z,45.32
2023-01-30T11:03:47.189Z,44.14
2023-01-30T11:06:15.323Z,43.73
2023-01-30T11:08:41.880Z,43.56
2023-01-30T11:11:08.302Z,42.79
2023-01-30T11:13:34.788Z,42.49
2023-01-30T11:16:01.317Z,41.59
2023-01-30T11:19:17.191Z,42.42
2023-01-30T11:21:14.899Z,42.15
2023-01-30T11:23:43.708Z,42.73
2023-01-30T11:26:11.854Z,42.79
2023-01-30T11:28:38.572Z,42.00
2023-01-30T11:31:05.081Z,41.57
2023-01-30T11:33:31.519Z,41.34
2023-01-30T11:35:58.116Z,41.24
2023-01-30T11:38:24.747Z,40.93
2023-01-30T11:40:51.365Z,41.45
2023-01-30T11:43:18.812Z,40.92
2023-01-30T11:45:45.305Z,40.40
2023-01-30T11:48:23.533Z,41.70
2023-01-30T11:50:58.136Z,41.94
2023-01-30T11:53:24.759Z,41.24
2023-01-30T11:56:03.034Z,42.35
2023-01-30T11:58:32.496Z,41.50
2023-01-30T12:00:59.077Z,41.12
2023-01-30T12:03:25.492Z,41.20
2023-01-30T12:05:51.955Z,41.94
2023-01-30T12:08:22.516Z,41.19
2023-01-30T12:10:54.284Z,42.10
2023-01-30T12:13:22.298Z,43.05
2023-01-30T12:15:48.781Z,42.87
2023-01-30T12:18:15.591Z,43.06
2023-01-30T12:20:41.973Z,43.60
2023-01-30T12:23:08.439Z,44.58
2023-01-30T12:25:34.961Z,44.84
2023-01-30T12:28:01.648Z,45.49
2023-01-30T12:30:30.594Z,45.34
2023-01-30T12:32:57.181Z,45.77
2023-01-30T12:35:23.775Z,45.70
2023-01-30T12:37:50.323Z,45.97
2023-01-30T12:40:16.922Z,47.69
2023-01-30T12:42:43.588Z,47.10
2023-01-30T12:45:10.112Z,47.50
2023-01-30T12:47:36.626Z,46.95
2023-01-30T12:50:03.085Z,46.67
2023-01-30T12:52:29.573Z,48.93
2023-01-30T12:54:56.205Z,47.47
2023-01-30T12:57:23.271Z,53.08
2023-01-30T12:59:49.671Z,49.14
2023-01-30T13:02:16.481Z,49.20
2023-01-30T13:05:01.744Z,48.63
2023-01-30T13:07:29.772Z,49.10
2023-01-30T13:09:56.261Z,49.07
2023-01-30T13:12:22.743Z,49.28
2023-01-30T13:14:49.365Z,50.54
2023-01-30T13:17:16.233Z,51.00
2023-01-30T13:19:42.631Z,51.07
2023-01-30T13:22:09.505Z,52.53
2023-01-30T13:24:36.114Z,52.43
2023-01-30T13:27:03.336Z,53.73
2023-01-30T13:29:29.836Z,53.77
2023-01-30T13:31:56.714Z,54.82
2023-01-30T13:34:23.281Z,54.89
2023-01-30T13:36:49.770Z,56.36
2023-01-30T13:41:42.648Z,56.01
2023-01-30T13:44:09.128Z,55.71
2023-01-30T13:46:35.838Z,56.90
2023-01-30T13:49:04.677Z,57.68
2023-01-30T13:51:31.152Z,58.29
2023-01-30T13:53:58.095Z,57.85
2023-01-30T13:56:40.772Z,58.41
2023-01-30T13:59:08.853Z,59.13
2023-01-30T14:01:35.463Z,60.56
2023-01-30T14:04:01.926Z,59.00
2023-01-30T14:06:28.610Z,58.70
2023-01-30T14:08:55.098Z,58.87
2023-01-30T14:11:21.682Z,59.76
2023-01-30T14:13:48.561Z,60.14
2023-01-30T14:16:15.084Z,60.30
2023-01-30T14:18:41.524Z,59.52
2023-01-30T14:21:08.176Z,59.65
2023-01-30T14:23:34.813Z,59.01
2023-01-30T14:26:01.222Z,59.41
2023-01-30T14:28:27.671Z,58.28
2023-01-30T14:30:54.211Z,58.30
2023-01-30T14:33:20.878Z,58.15
2023-01-30T14:35:47.451Z,56.80
2023-01-30T14:38:13.937Z,56.55
2023-01-30T14:40:40.447Z,56.51
2023-01-30T14:43:06.952Z,56.65
2023-01-30T14:45:33.634Z,56.71
2023-01-30T14:48:01.277Z,55.28
2023-01-30T14:50:28.029Z,54.95
2023-01-30T14:52:54.852Z,55.57
2023-01-30T14:55:21.814Z,55.42
2023-01-30T14:57:48.470Z,55.33
2023-01-30T15:00:18.004Z,55.97
2023-01-30T15:02:46.143Z,55.27
2023-01-30T15:05:13.128Z,56.10
2023-01-30T15:07:41.944Z,56.94
2023-01-30T15:10:08.333Z,56.35
2023-01-30T15:12:36.340Z,56.52
2023-01-30T15:15:02.832Z,56.79
2023-01-30T15:17:29.321Z,57.74
2023-01-30T15:19:55.924Z,56.14
2023-01-30T15:22:22.765Z,57.47
2023-01-30T15:24:49.655Z,58.04
2023-01-30T15:27:16.106Z,60.46
2023-01-30T15:29:42.607Z,58.35
2023-01-30T15:32:11.576Z,58.67
2023-01-30T15:34:38.704Z,57.15
2023-01-30T15:37:06.164Z,57.59
2023-01-30T15:39:32.808Z,58.38
2023-01-30T15:42:00.174Z,58.44
2023-01-30T15:44:26.683Z,57.36
2023-01-30T15:46:53.820Z,57.77
2023-01-30T15:49:20.395Z,57.13
2023-01-30T15:51:47.073Z,57.32
2023-01-30T15:54:13.478Z,57.17
2023-01-30T15:56:39.980Z,57.03
2023-01-30T15:59:06.556Z,56.71
2023-01-30T16:01:33.409Z,55.99
2023-01-30T16:03:59.995Z,56.22
2023-01-30T16:06:26.471Z,56.90
2023-01-30T16:08:52.906Z,56.91
2023-01-30T16:11:19.383Z,56.39
2023-01-30T16:13:46.141Z,58.09
2023-01-30T16:16:12.958Z,59.01
2023-01-30T16:18:39.957Z,55.50
2023-01-30T16:21:06.478Z,54.71
2023-01-30T16:23:34.022Z,55.58
2023-01-30T16:26:00.828Z,54.63
2023-01-30T16:28:27.644Z,55.19
2023-01-30T16:30:54.445Z,55.01
2023-01-30T16:33:20.973Z,55.17
2023-01-30T16:35:49.785Z,55.04
2023-01-30T16:38:17.313Z,54.20
2023-01-30T16:40:44.603Z,55.11
2023-01-30T16:43:11.028Z,55.99
2023-01-30T16:45:37.531Z,56.19
2023-01-30T16:48:05.795Z,55.67
2023-01-30T16:50:32.752Z,55.43
2023-01-30T16:52:59.348Z,55.85
2023-01-30T16:55:26.213Z,55.96
2023-01-30T16:57:54.429Z,55.60
2023-01-30T17:00:21.515Z,55.14
2023-01-30T17:02:48.854Z,55.25
2023-01-30T17:05:15.440Z,56.08
2023-01-30T17:07:42.209Z,55.50
2023-01-30T17:10:09.101Z,55.22
2023-01-30T17:12:36.921Z,56.75
2023-01-30T17:15:03.563Z,55.66
2023-01-30T17:17:30.404Z,56.03
2023-01-30T17:19:57.458Z,56.83
2023-01-30T17:22:23.970Z,56.80
2023-01-30T17:24:50.834Z,57.24
2023-01-30T17:27:17.402Z,56.97
2023-01-30T17:29:44.253Z,57.91
2023-01-30T17:32:10.853Z,57.54
2023-01-30T17:34:37.377Z,57.29
2023-01-30T17:37:04.211Z,57.25
2023-01-30T17:39:32.468Z,57.02
2023-01-30T17:41:59.606Z,56.77
2023-01-30T17:44:26.164Z,56.26
2023-01-30T17:46:52.995Z,55.99
2023-01-30T17:49:20.851Z,55.52
2023-01-30T17:51:49.953Z,55.02
2023-01-30T17:54:16.568Z,56.36
2023-01-30T17:56:43.848Z,56.39
2023-01-30T17:59:11.613Z,56.10
2023-01-30T18:01:38.781Z,54.81
2023-01-30T18:04:07.127Z,55.49
2023-01-30T18:06:34.010Z,55.09
2023-01-30T18:09:01.020Z,55.10
2023-01-30T18:11:28.903Z,56.15
2023-01-30T18:13:55.678Z,55.23
2023-01-30T18:16:22.628Z,55.50
2023-01-30T18:18:49.804Z,54.94
2023-01-30T18:21:16.682Z,56.32
2023-01-30T18:23:43.611Z,54.80
2023-01-30T18:26:11.762Z,55.23
2023-01-30T18:28:39.468Z,55.79
2023-01-30T18:31:07.467Z,55.11
2023-01-30T18:33:34.425Z,54.47
2023-01-30T18:36:06.303Z,55.19
2023-01-30T18:38:37.174Z,55.26
2023-01-30T18:41:04.164Z,54.63
2023-01-30T18:43:31.096Z,54.70
2023-01-30T18:45:58.009Z,54.60
2023-01-30T18:48:25.030Z,55.05
2023-01-30T18:50:52.213Z,55.16
2023-01-30T18:53:21.535Z,54.35
2023-01-30T18:55:49.258Z,55.36
2023-01-30T18:58:16.623Z,55.65
2023-01-30T19:00:43.438Z,56.02
2023-01-30T19:03:10.009Z,54.87
2023-01-30T19:05:36.836Z,54.85
2023-01-30T19:08:04.610Z,55.42
2023-01-30T19:10:31.656Z,55.20
2023-01-30T19:12:58.954Z,54.77
2023-01-30T19:15:26.059Z,54.55
2023-01-30T19:17:53.048Z,53.76
2023-01-30T19:20:23.493Z,55.14
2023-01-30T19:22:51.118Z,55.90
2023-01-30T19:25:19.378Z,56.42
2023-01-30T19:27:46.484Z,57.05
2023-01-30T19:30:13.805Z,57.38
2023-01-30T19:32:41.270Z,57.34
2023-01-30T19:35:10.778Z,57.38
2023-01-30T19:37:38.614Z,58.11
2023-01-30T19:40:05.854Z,57.75
2023-01-30T19:42:32.867Z,56.19
2023-01-30T19:45:00.408Z,55.71
2023-01-30T19:47:28.455Z,56.46
2023-01-30T19:49:56.386Z,55.16
2023-01-30T19:52:23.538Z,55.62
2023-01-30T19:54:50.891Z,55.20
2023-01-30T19:57:18.056Z,55.77
2023-01-30T19:59:45.801Z,55.17
2023-01-30T20:02:13.842Z,55.05
2023-01-30T20:04:42.678Z,54.88
2023-01-30T20:07:10.179Z,55.17
2023-01-30T20:09:37.391Z,54.04
2023-01-30T20:12:04.455Z,54.05
2023-01-30T20:14:33.981Z,53.59
2023-01-30T20:17:01.921Z,53.00
2023-01-30T20:19:30.809Z,52.75
2023-01-30T20:21:58.401Z,53.91
2023-01-30T20:24:25.330Z,52.69
2023-01-30T20:26:52.342Z,52.67
2023-01-30T20:29:19.406Z,53.63
2023-01-30T20:31:46.481Z,53.83
2023-01-30T20:34:13.467Z,53.08
2023-01-30T20:36:40.046Z,52.91
2023-01-30T20:39:07.741Z,53.75
2023-01-30T20:41:34.802Z,53.97
2023-01-30T20:44:01.743Z,54.92
2023-01-30T20:46:28.786Z,56.46
2023-01-30T20:48:55.722Z,55.79
2023-01-30T20:51:22.558Z,55.71
2023-01-30T20:53:50.768Z,56.25
2023-01-30T20:56:17.485Z,57.48
2023-01-30T20:58:46.213Z,57.96
2023-01-30T21:01:13.450Z,56.91
2023-01-30T21:03:40.814Z,56.71
2023-01-30T21:06:07.890Z,57.17
2023-01-30T21:08:35.141Z,57.70
2023-01-30T21:11:02.421Z,56.95
2023-01-30T21:13:29.648Z,58.09
2023-01-30T21:15:56.214Z,57.62
2023-01-30T21:18:22.668Z,58.87
2023-01-30T21:20:49.298Z,58.05
2023-01-30T21:23:17.175Z,58.76
2023-01-30T21:25:43.855Z,58.11
2023-01-30T21:28:10.406Z,59.38
2023-01-30T21:30:38.241Z,57.55
2023-01-30T21:33:05.685Z,57.27
2023-01-30T21:35:32.810Z,56.99
2023-01-30T21:37:59.648Z,57.21
2023-01-30T21:40:26.396Z,57.07
2023-01-30T21:42:53.320Z,58.10
2023-01-30T21:45:20.206Z,58.33
2023-01-30T21:47:47.617Z,58.59
2023-01-30T21:50:14.504Z,57.94
2023-01-30T21:52:41.272Z,58.34
2023-01-30T21:55:07.743Z,58.03
2023-01-30T21:57:34.439Z,57.17
2023-01-30T22:00:02.051Z,57.14
2023-01-30T22:02:28.744Z,56.42
2023-01-30T22:04:55.854Z,56.13
2023-01-30T22:07:22.954Z,55.66
2023-01-30T22:09:49.515Z,56.21
2023-01-30T22:12:16.617Z,55.46
2023-01-30T22:14:43.306Z,54.95
2023-01-30T22:17:09.768Z,54.63
2023-01-30T22:19:36.746Z,54.82
2023-01-30T22:22:03.192Z,54.67
2023-01-30T22:24:29.765Z,55.13
2023-01-30T22:26:56.237Z,54.91
2023-01-30T22:29:22.793Z,54.29
2023-01-30T22:31:49.251Z,55.38
2023-01-30T22:34:15.722Z,54.47
2023-01-30T22:36:42.661Z,53.94
2023-01-30T22:39:09.133Z,54.05
2023-01-30T22:41:38.599Z,54.02
2023-01-30T22:44:05.490Z,54.08
2023-01-30T22:46:34.119Z,53.10
2023-01-30T22:49:01.044Z,54.21
2023-01-30T22:51:28.159Z,53.80
2023-01-30T22:53:54.574Z,54.01
2023-01-30T22:56:21.021Z,53.81
2023-01-30T22:58:48.372Z,53.01
2023-01-30T23:01:14.957Z,54.06
2023-01-30T23:03:43.372Z,52.75
2023-01-30T23:06:10.040Z,52.80
2023-01-30T23:08:36.867Z,52.36
2023-01-30T23:11:03.291Z,52.41
2023-01-30T23:13:29.729Z,52.34
2023-01-30T23:15:56.345Z,52.48
2023-01-30T23:18:23.066Z,53.50
2023-01-30T23:20:49.560Z,52.79
2023-01-30T23:23:16.068Z,52.40
2023-01-30T23:25:42.515Z,51.86
2023-01-30T23:28:08.995Z,52.08
2023-01-30T23:30:35.507Z,51.27
2023-01-30T23:33:01.983Z,51.79
2023-01-30T23:35:28.537Z,51.43
2023-01-30T23:37:55.714Z,51.62
2023-01-30T23:40:24.927Z,51.15
2023-01-30T23:42:51.336Z,50.72
2023-01-30T23:45:18.177Z,50.80
2023-01-30T23:47:44.934Z,51.16
2023-01-30T23:50:11.594Z,51.38
2023-01-30T23:52:38.111Z,50.30
2023-01-30T23:55:05.345Z,51.13
2023-01-30T23:57:31.792Z,52.76
2023-01-30T23:59:58.420Z,52.84
